• Join FlightAware (Why Join?)
  • Login
  • US Flag 
08:51PM EDT


 

Airport Tracker/Info


-or-


 

Live Flight TrackerFlight Track Log ✈ UAL383 ✈ 30-Jun-2013 ✈ PHNL - KDEN

Flight Track Log - Related Links

Times and Time Zones

All times are in EDT time to prevent confusion due to time zone crossing. See the UAL383 flight status page for this flight to view local times or setup timezone preferences in your user account.

Time Position Orientation Groundspeed Altitude Reporting Facility
EDT Latitude Longitude Course Direction KTS MPH feet Rate Location/Type
04:13AM 21.3167 -157.9000 105° East 200 230 1,200  Level Honolulu Center
04:14AM 21.2500 -157.8667 155° Southeast 230 265 3,000 2,100 Climbing Honolulu Center
04:15AM 21.2000 -157.8333 148° Southeast 250 288 5,400 2,220 Climbing Honolulu Center
04:16AM 21.1833 -157.7500 102° East 270 311 7,500 2,100 Climbing Honolulu Center
04:17AM 21.1836 -157.4012 102° East  Level FlightAware Approximate
04:17AM 21.2000 -157.6667 78° East 270 311 9,700  Level Honolulu Center
04:18AM 21.1592 -157.2701 105° East  Level FlightAware Approximate
04:18AM 21.2167 -157.5833 78° East 300 345 10,900  Level Honolulu Center
04:19AM 21.2333 -157.4833 80° East 350 403 11,900 1,380 Climbing Honolulu Center
04:20AM 21.2333 -157.3667 90° East 370 426 13,800 1,800 Climbing Honolulu Center
04:21AM 21.2667 -157.2667 70° East 380 437 15,500 1,500 Climbing Honolulu Center
04:22AM 21.2833 -157.1500 81° East 390 449 16,900 1,380 Climbing Honolulu Center
04:23AM 21.3167 -157.0333 73° East 400 460 18,300 1,320 Climbing Honolulu Center
04:24AM 21.3333 -156.9167 81° East 410 472 19,600 1,200 Climbing Honolulu Center
04:25AM 21.3667 -156.7833 75° East 420 483 20,800 1,140 Climbing Honolulu Center
04:26AM 21.3833 -156.6667 81° East 430 495 21,900 1,080 Climbing Honolulu Center
04:27AM 21.4167 -156.5333 75° East 440 506 23,000 1,020 Climbing Honolulu Center
04:28AM 21.4500 -156.4000 75° East 450 518 24,000 960 Climbing Honolulu Center
04:29AM 21.4667 -156.2667 82° East 460 529 25,000 1,020 Climbing Honolulu Center
04:30AM 21.5000 -156.1333 75° East 470 541 26,100 1,020 Climbing Honolulu Center
04:31AM 21.5333 -156.0000 75° East 470 541 27,100 960 Climbing Honolulu Center
04:32AM 21.5667 -155.8667 75° East 480 552 28,100 840 Climbing Honolulu Center
04:33AM 21.5833 -155.7167 83° East 480 552 28,800 900 Climbing Honolulu Center
04:34AM 21.6167 -155.5833 75° East 480 552 30,000 960 Climbing Honolulu Center
04:35AM 21.6500 -155.4333 77° East 480 552 30,800 720 Climbing Honolulu Center
04:36AM 21.6833 -155.3000 75° East 480 552 31,500 660 Climbing Honolulu Center
04:37AM 21.7000 -155.1500 83° East 490 564 32,200 660 Climbing Honolulu Center
04:38AM 21.7333 -155.0167 75° East 490 564 32,900 600 Climbing Honolulu Center
04:39AM 21.7667 -154.8667 77° East 500 575 33,500 600 Climbing Honolulu Center
04:40AM 21.8000 -154.7167 77° East 490 564 34,200 720 Climbing Honolulu Center
04:41AM 21.8167 -154.5833 82° East 490 564 35,000 360 Climbing Honolulu Center
04:42AM 21.8500 -154.4333 77° East 480 552 35,000  Level Honolulu Center
04:43AM 21.8833 -154.3000 75° East 480 552 35,000  Level Honolulu Center
04:44AM 21.9000 -154.1500 83° East 480 552 35,000  Level Honolulu Center
04:45AM 21.9333 -154.0167 75° East 480 552 35,000  Level Honolulu Center
04:46AM 21.9667 -153.8667 76° East 480 552 35,000  Level Honolulu Center
04:47AM 21.9833 -153.7333 82° East 480 552 35,000  Level Honolulu Center
04:49AM 22.0096 -153.5626 81° East  Level FlightAware Approximate
04:56AM 22.1975 -152.6445 78° East  Level FlightAware Approximate
04:57AM 22.2225 -152.5121 78° East  Level FlightAware Approximate
04:58AM 22.2473 -152.3798 79° East  Level FlightAware Approximate
04:59AM 22.2720 -152.2474 79° East  Level FlightAware Approximate
05:00AM 22.2967 -152.1149 79° East  Level FlightAware Approximate
05:01AM 22.3212 -151.9824 79° East  Level FlightAware Approximate
05:02AM 22.3484 -151.8526 62° Northeast  Level FlightAware Approximate
05:02AM 22.3500 -151.8833 62° Northeast 452 520 35,000  Level Oakland Oceanic (ODAPS)
05:03AM 22.4070 -151.7332 62° Northeast  Level FlightAware Approximate
05:04AM 22.4656 -151.6136 62° Northeast  Level FlightAware Approximate
05:05AM 22.5240 -151.4940 62° Northeast  Level FlightAware Approximate
05:06AM 22.5823 -151.3743 62° Northeast  Level FlightAware Approximate
05:07AM 22.6406 -151.2544 62° Northeast  Level FlightAware Approximate
05:08AM 22.6987 -151.1345 62° Northeast  Level FlightAware Approximate
05:09AM 22.8760 -150.8018 62° Northeast 452 520 35,000  Level FlightAware Transoceanic
05:10AM 22.9340 -150.6811 62° Northeast 452 520 35,000  Level FlightAware Transoceanic
05:11AM 22.9919 -150.5603 63° Northeast 452 520 35,000  Level FlightAware Transoceanic
05:12AM 23.0498 -150.4395 63° Northeast 452 520 35,000  Level FlightAware Transoceanic
05:13AM 23.1075 -150.3185 63° Northeast 452 520 35,000  Level FlightAware Transoceanic
05:14AM 23.1651 -150.1974 63° Northeast 452 520 35,000  Level FlightAware Transoceanic
05:15AM 23.2227 -150.0762 63° Northeast 452 520 35,000  Level FlightAware Transoceanic
05:16AM 23.2801 -149.9549 63° Northeast 452 520 35,000  Level FlightAware Transoceanic
05:17AM 23.3375 -149.8335 63° Northeast 452 520 35,000  Level FlightAware Transoceanic
05:18AM 23.3947 -149.7119 63° Northeast 452 520 35,000  Level FlightAware Transoceanic
05:19AM 23.4519 -149.5903 63° Northeast 452 520 35,000  Level FlightAware Transoceanic
05:20AM 23.5089 -149.4686 63° Northeast 452 520 35,000  Level FlightAware Transoceanic
05:21AM 23.5659 -149.3468 63° Northeast 452 520 35,000  Level FlightAware Transoceanic
05:22AM 23.6228 -149.2248 63° Northeast 452 520 35,000  Level FlightAware Transoceanic
05:23AM 23.6796 -149.1028 63° Northeast 452 520 35,000  Level FlightAware Transoceanic
05:24AM 23.7363 -148.9806 63° Northeast 452 520 35,000  Level FlightAware Transoceanic
05:25AM 23.7929 -148.8584 63° Northeast 452 520 35,000  Level FlightAware Transoceanic
05:26AM 23.8494 -148.7360 63° Northeast 452 520 35,000  Level FlightAware Transoceanic
05:27AM 23.9058 -148.6136 63° Northeast 452 520 35,000  Level FlightAware Transoceanic
05:28AM 23.9621 -148.4910 63° Northeast 452 520 35,000  Level FlightAware Transoceanic
05:29AM 24.0183 -148.3683 63° Northeast 452 520 35,000  Level FlightAware Transoceanic
05:30AM 24.0744 -148.2455 63° Northeast 452 520 35,000  Level FlightAware Transoceanic
05:31AM 24.1304 -148.1226 63° Northeast 452 520 35,000  Level FlightAware Transoceanic
05:32AM 24.1863 -147.9996 64° Northeast 452 520 35,000  Level FlightAware Transoceanic
05:33AM 24.2421 -147.8765 64° Northeast 452 520 35,000  Level FlightAware Transoceanic
05:34AM 24.2978 -147.7533 64° Northeast 452 520 35,000  Level FlightAware Transoceanic
05:35AM 24.3535 -147.6299 64° Northeast 452 520 35,000  Level FlightAware Transoceanic
05:36AM 24.4090 -147.5065 64° Northeast 452 520 35,000  Level FlightAware Transoceanic
05:37AM 24.4644 -147.3830 64° Northeast 452 520 35,000  Level FlightAware Transoceanic
05:38AM 24.5197 -147.2593 64° Northeast 452 520 35,000  Level FlightAware Transoceanic
05:39AM 24.5749 -147.1355 64° Northeast 452 520 35,000  Level FlightAware Transoceanic
05:40AM 24.6300 -147.0117 64° Northeast 452 520 35,000  Level FlightAware Transoceanic
05:41AM 24.6850 -146.8877 64° Northeast 452 520 35,000  Level FlightAware Transoceanic
05:42AM 24.7399 -146.7636 64° Northeast 452 520 35,000  Level FlightAware Transoceanic
05:43AM 24.7947 -146.6394 64° Northeast 452 520 35,000  Level FlightAware Transoceanic
05:44AM 24.8494 -146.5151 64° Northeast 452 520 35,000  Level FlightAware Transoceanic
05:45AM 24.9040 -146.3907 64° Northeast 452 520 35,000  Level FlightAware Transoceanic
05:46AM 24.9585 -146.2662 64° Northeast 452 520 35,000  Level FlightAware Transoceanic
05:47AM 25.0129 -146.1415 64° Northeast 452 520 35,000  Level FlightAware Transoceanic
05:48AM 25.0672 -146.0168 64° Northeast 452 520 35,000  Level FlightAware Transoceanic
05:49AM 25.1214 -145.8919 64° Northeast 452 520 35,000  Level FlightAware Transoceanic
05:50AM 25.1755 -145.7669 64° Northeast 452 520 35,000  Level FlightAware Transoceanic
05:51AM 25.2295 -145.6419 65° Northeast 452 520 35,000  Level FlightAware Transoceanic
05:52AM 25.2833 -145.5167 65° Northeast 452 520 35,000  Level FlightAware Transoceanic
05:53AM 25.3379 -145.3889 65° Northeast 452 520 35,000  Level FlightAware Transoceanic
05:53AM 25.2833 -145.5167 65° Northeast 468 539 35,000  Level Oakland Oceanic (ODAPS)
05:54AM 25.3923 -145.2610 65° Northeast 452 520 35,000  Level FlightAware Transoceanic
05:55AM 25.4466 -145.1329 65° Northeast 452 520 35,000  Level FlightAware Transoceanic
05:56AM 25.5009 -145.0048 65° Northeast 452 520 35,000  Level FlightAware Transoceanic
05:57AM 25.5550 -144.8766 65° Northeast 452 520 35,000  Level FlightAware Transoceanic
05:58AM 25.6089 -144.7482 65° Northeast 452 520 35,000  Level FlightAware Transoceanic
05:59AM 25.6703 -144.6017 65° Northeast 468 539 35,000  Level FlightAware Transoceanic
06:00AM 25.7252 -144.4705 65° Northeast 468 539 35,000  Level FlightAware Transoceanic
06:01AM 25.7799 -144.3392 65° Northeast 468 539 35,000  Level FlightAware Transoceanic
06:02AM 25.8345 -144.2078 65° Northeast 468 539 35,000  Level FlightAware Transoceanic
06:03AM 25.8889 -144.0762 65° Northeast 468 539 35,000  Level FlightAware Transoceanic
06:04AM 25.9433 -143.9446 65° Northeast 468 539 35,000  Level FlightAware Transoceanic
06:05AM 25.9975 -143.8128 65° Northeast 468 539 35,000  Level FlightAware Transoceanic
06:06AM 26.0516 -143.6809 65° Northeast 468 539 35,000  Level FlightAware Transoceanic
06:07AM 26.1056 -143.5488 66° East 468 539 35,000  Level FlightAware Transoceanic
06:08AM 26.1595 -143.4167 66° East 468 539 35,000  Level FlightAware Transoceanic
06:09AM 26.2132 -143.2844 66° East 468 539 35,000  Level FlightAware Transoceanic
06:10AM 26.2669 -143.1520 66° East 468 539 35,000  Level FlightAware Transoceanic
06:11AM 26.3204 -143.0195 66° East 468 539 35,000  Level FlightAware Transoceanic
06:12AM 26.3738 -142.8868 66° East 468 539 35,000  Level FlightAware Transoceanic
06:13AM 26.4270 -142.7540 66° East 468 539 35,000  Level FlightAware Transoceanic
06:14AM 26.4802 -142.6212 66° East 468 539 35,000  Level FlightAware Transoceanic
06:15AM 26.5332 -142.4881 66° East 468 539 35,000  Level FlightAware Transoceanic
06:16AM 26.5861 -142.3550 66° East 468 539 35,000  Level FlightAware Transoceanic
06:17AM 26.6389 -142.2217 66° East 468 539 35,000  Level FlightAware Transoceanic
06:18AM 26.6915 -142.0884 66° East 468 539 35,000  Level FlightAware Transoceanic
06:19AM 26.7440 -141.9548 66° East 468 539 35,000  Level FlightAware Transoceanic
06:20AM 26.7964 -141.8212 66° East 468 539 35,000  Level FlightAware Transoceanic
06:21AM 26.8487 -141.6875 66° East 468 539 35,000  Level FlightAware Transoceanic
06:22AM 26.9008 -141.5536 66° East 468 539 35,000  Level FlightAware Transoceanic
06:23AM 26.9529 -141.4196 67° East 468 539 35,000  Level FlightAware Transoceanic
06:24AM 27.0047 -141.2855 67° East 468 539 35,000  Level FlightAware Transoceanic
06:25AM 27.0565 -141.1512 67° East 468 539 35,000  Level FlightAware Transoceanic
06:26AM 27.1082 -141.0168 67° East 468 539 35,000  Level FlightAware Transoceanic
06:27AM 27.1597 -140.8824 67° East 468 539 35,000  Level FlightAware Transoceanic
06:28AM 27.2110 -140.7477 67° East 468 539 35,000  Level FlightAware Transoceanic
06:29AM 27.2623 -140.6130 67° East 468 539 35,000  Level FlightAware Transoceanic
06:30AM 27.3134 -140.4781 67° East 468 539 35,000  Level FlightAware Transoceanic
06:31AM 27.3644 -140.3431 67° East 468 539 35,000  Level FlightAware Transoceanic
06:32AM 27.4153 -140.2080 67° East 468 539 35,000  Level FlightAware Transoceanic
06:33AM 27.4660 -140.0728 67° East 468 539 35,000  Level FlightAware Transoceanic
06:34AM 27.5166 -139.9374 67° East 468 539 35,000  Level FlightAware Transoceanic
06:35AM 27.5671 -139.8019 67° East 468 539 35,000  Level FlightAware Transoceanic
06:36AM 27.6174 -139.6663 67° East 468 539 35,000  Level FlightAware Transoceanic
06:37AM 27.6676 -139.5306 67° East 468 539 35,000  Level FlightAware Transoceanic
06:38AM 27.7177 -139.3947 67° East 468 539 35,000  Level FlightAware Transoceanic
06:39AM 27.7676 -139.2587 67° East 468 539 35,000  Level FlightAware Transoceanic
06:40AM 27.8174 -139.1226 68° East 468 539 35,000  Level FlightAware Transoceanic
06:41AM 27.8671 -138.9864 68° East 468 539 35,000  Level FlightAware Transoceanic
06:42AM 27.9167 -138.8500 68° East 468 539 35,000  Level FlightAware Transoceanic
06:43AM 27.9667 -138.7117 68° East 468 539 35,000  Level FlightAware Transoceanic
06:44AM 28.0166 -138.5733 68° East 468 539 35,000  Level FlightAware Transoceanic
06:45AM 28.0664 -138.4347 68° East 468 539 35,000  Level FlightAware Transoceanic
06:46AM 28.1160 -138.2960 68° East 468 539 35,000  Level FlightAware Transoceanic
06:46AM 27.9167 -138.8500 68° East 476 548 35,000  Level Oakland Oceanic (ODAPS)
06:47AM 28.1655 -138.1572 68° East 468 539 35,000  Level FlightAware Transoceanic
06:48AM 28.2148 -138.0183 68° East 468 539 35,000  Level FlightAware Transoceanic
06:49AM 28.2640 -137.8792 68° East 468 539 35,000  Level FlightAware Transoceanic
06:50AM 28.3131 -137.7400 68° East 468 539 35,000  Level FlightAware Transoceanic
06:51AM 28.3620 -137.6007 68° East 468 539 35,000  Level FlightAware Transoceanic
06:52AM 28.4594 -137.3216 68° East 476 548 35,000  Level FlightAware Transoceanic
06:53AM 28.5079 -137.1819 68° East 476 548 35,000  Level FlightAware Transoceanic
06:54AM 28.5562 -137.0421 69° East 476 548 35,000  Level FlightAware Transoceanic
06:55AM 28.6044 -136.9021 69° East 476 548 35,000  Level FlightAware Transoceanic
06:56AM 28.6525 -136.7620 69° East 476 548 35,000  Level FlightAware Transoceanic
06:57AM 28.7004 -136.6218 69° East 476 548 35,000  Level FlightAware Transoceanic
06:58AM 28.7482 -136.4814 69° East 476 548 35,000  Level FlightAware Transoceanic
06:59AM 28.7958 -136.3409 69° East 476 548 35,000  Level FlightAware Transoceanic
07:00AM 28.8433 -136.2003 69° East 476 548 35,000  Level FlightAware Transoceanic
07:01AM 28.8906 -136.0596 69° East 476 548 35,000  Level FlightAware Transoceanic
07:02AM 28.9378 -135.9187 69° East 476 548 35,000  Level FlightAware Transoceanic
07:03AM 28.9848 -135.7777 69° East 476 548 35,000  Level FlightAware Transoceanic
07:04AM 29.0317 -135.6366 69° East 476 548 35,000  Level FlightAware Transoceanic
07:05AM 29.0785 -135.4953 69° East 476 548 35,000  Level FlightAware Transoceanic
07:06AM 29.1251 -135.3539 69° East 476 548 35,000  Level FlightAware Transoceanic
07:07AM 29.1715 -135.2124 69° East 476 548 35,000  Level FlightAware Transoceanic
07:08AM 29.2178 -135.0708 70° East 476 548 35,000  Level FlightAware Transoceanic
07:09AM 29.2640 -134.9290 70° East 476 548 35,000  Level FlightAware Transoceanic
07:10AM 29.3100 -134.7871 70° East 476 548 35,000  Level FlightAware Transoceanic
07:11AM 29.3559 -134.6451 70° East 476 548 35,000  Level FlightAware Transoceanic
07:12AM 29.4016 -134.5030 70° East 476 548 35,000  Level FlightAware Transoceanic
07:13AM 29.4471 -134.3607 70° East 476 548 35,000  Level FlightAware Transoceanic
07:14AM 29.4925 -134.2183 70° East 476 548 35,000  Level FlightAware Transoceanic
07:15AM 29.5378 -134.0758 70° East 476 548 35,000  Level FlightAware Transoceanic
07:16AM 29.5828 -133.9331 70° East 476 548 35,000  Level FlightAware Transoceanic
07:17AM 29.6278 -133.7903 70° East 476 548 35,000  Level FlightAware Transoceanic
07:18AM 29.6726 -133.6474 70° East 476 548 35,000  Level FlightAware Transoceanic
07:19AM 29.7172 -133.5044 70° East 476 548 35,000  Level FlightAware Transoceanic
07:20AM 29.7617 -133.3612 70° East 476 548 35,000  Level FlightAware Transoceanic
07:21AM 29.8060 -133.2179 70° East 476 548 35,000  Level FlightAware Transoceanic
07:22AM 29.8502 -133.0745 70° East 476 548 35,000  Level FlightAware Transoceanic
07:23AM 29.8942 -132.9309 71° East 476 548 35,000  Level FlightAware Transoceanic
07:24AM 29.9381 -132.7873 71° East 476 548 35,000  Level FlightAware Transoceanic
07:25AM 29.9818 -132.6435 71° East 476 548 35,000  Level FlightAware Transoceanic
07:26AM 30.0253 -132.4995 71° East 476 548 35,000  Level FlightAware Transoceanic
07:27AM 30.0687 -132.3555 71° East 476 548 35,000  Level FlightAware Transoceanic
07:28AM 30.1120 -132.2113 71° East 476 548 35,000  Level FlightAware Transoceanic
07:29AM 30.1551 -132.0670 71° East 476 548 35,000  Level FlightAware Transoceanic
07:30AM 30.1980 -131.9226 71° East 476 548 35,000  Level FlightAware Transoceanic
07:31AM 30.2407 -131.7780 71° East 476 548 35,000  Level FlightAware Transoceanic
07:32AM 30.2833 -131.6333 71° East 476 548 35,000  Level FlightAware Transoceanic
07:33AM 30.3252 -131.4915 71° East 476 548 35,000  Level FlightAware Transoceanic
07:33AM 30.2833 -131.6333 71° East 466 536 35,000  Level Oakland Oceanic (ODAPS)
07:34AM 30.3670 -131.3495 71° East 476 548 35,000  Level FlightAware Transoceanic
07:35AM 30.4085 -131.2074 71° East 476 548 35,000  Level FlightAware Transoceanic
07:36AM 30.4500 -131.0652 71° East 476 548 35,000  Level FlightAware Transoceanic
07:37AM 30.4912 -130.9228 71° East 476 548 35,000  Level FlightAware Transoceanic
07:38AM 30.5324 -130.7803 72° East 476 548 35,000  Level FlightAware Transoceanic
07:39AM 30.5733 -130.6378 72° East 476 548 35,000  Level FlightAware Transoceanic
07:40AM 30.6548 -130.3522 72° East 466 536 35,000  Level FlightAware Transoceanic
07:41AM 30.6953 -130.2093 72° East 466 536 35,000  Level FlightAware Transoceanic
07:42AM 30.7356 -130.0662 72° East 466 536 35,000  Level FlightAware Transoceanic
07:43AM 30.7758 -129.9230 72° East 466 536 35,000  Level FlightAware Transoceanic
07:44AM 30.8158 -129.7797 72° East 466 536 35,000  Level FlightAware Transoceanic
07:45AM 30.8557 -129.6363 72° East 466 536 35,000  Level FlightAware Transoceanic
07:46AM 30.8954 -129.4928 72° East 466 536 35,000  Level FlightAware Transoceanic
07:47AM 30.9350 -129.3491 72° East 466 536 35,000  Level FlightAware Transoceanic
07:48AM 30.9743 -129.2053 72° East 466 536 35,000  Level FlightAware Transoceanic
07:49AM 31.0136 -129.0614 72° East 466 536 35,000  Level FlightAware Transoceanic
07:50AM 31.0527 -128.9174 72° East 466 536 35,000  Level FlightAware Transoceanic
07:51AM 31.0916 -128.7733 73° East 466 536 35,000  Level FlightAware Transoceanic
07:52AM 31.1303 -128.6290 73° East 466 536 35,000  Level FlightAware Transoceanic
07:53AM 31.1689 -128.4846 73° East 466 536 35,000  Level FlightAware Transoceanic
07:54AM 31.2073 -128.3401 73° East 466 536 35,000  Level FlightAware Transoceanic
07:55AM 31.2456 -128.1955 73° East 466 536 35,000  Level FlightAware Transoceanic
07:56AM 31.2837 -128.0508 73° East 466 536 35,000  Level FlightAware Transoceanic
07:57AM 31.3217 -127.9060 73° East 466 536 35,000  Level FlightAware Transoceanic
07:58AM 31.3594 -127.7610 73° East 466 536 35,000  Level FlightAware Transoceanic
07:59AM 31.3971 -127.6160 73° East 466 536 35,000  Level FlightAware Transoceanic
08:00AM 31.4345 -127.4708 73° East 466 536 35,000  Level FlightAware Transoceanic
08:01AM 31.4718 -127.3255 73° East 466 536 35,000  Level FlightAware Transoceanic
08:02AM 31.5089 -127.1800 73° East 466 536 35,000  Level FlightAware Transoceanic
08:03AM 31.5459 -127.0345 73° East 466 536 35,000  Level FlightAware Transoceanic
08:04AM 31.5827 -126.8888 74° East 466 536 35,000  Level FlightAware Transoceanic
08:05AM 31.6193 -126.7431 74° East 466 536 35,000  Level FlightAware Transoceanic
08:06AM 31.6558 -126.5972 74° East 466 536 35,000  Level FlightAware Transoceanic
08:07AM 31.6921 -126.4512 74° East 466 536 35,000  Level FlightAware Transoceanic
08:08AM 31.7282 -126.3051 74° East 466 536 35,000  Level FlightAware Transoceanic
08:09AM 31.7642 -126.1589 74° East 466 536 35,000  Level FlightAware Transoceanic
08:10AM 31.8000 -126.0126 74° East 466 536 35,000  Level FlightAware Transoceanic
08:11AM 31.8356 -125.8661 74° East 466 536 35,000  Level FlightAware Transoceanic
08:12AM 31.8711 -125.7195 74° East 466 536 35,000  Level FlightAware Transoceanic
08:13AM 31.9064 -125.5729 74° East 466 536 35,000  Level FlightAware Transoceanic
08:14AM 31.9415 -125.4261 74° East 466 536 35,000  Level FlightAware Transoceanic
08:15AM 31.9765 -125.2792 74° East 466 536 35,000  Level FlightAware Transoceanic
08:16AM 32.0112 -125.1322 74° East 466 536 35,000  Level FlightAware Transoceanic
08:17AM 32.0459 -124.9850 75° East 466 536 35,000  Level FlightAware Transoceanic
08:18AM 32.0803 -124.8378 75° East 466 536 35,000  Level FlightAware Transoceanic
08:19AM 32.1146 -124.6905 75° East 466 536 35,000  Level FlightAware Transoceanic
08:20AM 32.1487 -124.5430 75° East 466 536 35,000  Level FlightAware Transoceanic
08:21AM 32.1826 -124.3955 75° East 466 536 35,000  Level FlightAware Transoceanic
08:22AM 32.2164 -124.2478 75° East 466 536 35,000  Level FlightAware Transoceanic
08:23AM 32.2500 -124.1000 77° East 466 536 35,000  Level FlightAware Transoceanic
08:24AM 32.2776 -123.9628 77° East 466 536 35,000  Level FlightAware Transoceanic
08:25AM 32.3051 -123.8255 77° East 466 536 35,000  Level FlightAware Transoceanic
08:26AM 32.3324 -123.6881 77° East 466 536 35,000  Level FlightAware Transoceanic
08:26AM 32.3025 -123.7211 42° Northeast 444 511 35,000  Level Los Angeles Center
08:27AM 32.3595 -123.5507 77° East 466 536 35,000  Level FlightAware Transoceanic
08:27AM 32.3294 -123.5772 77° East 446 513 35,000  Level Los Angeles Center
08:28AM 32.3865 -123.4131 77° East 466 536 35,000 -120 Level FlightAware Transoceanic
08:28AM 32.3572 -123.4319 77° East 450 518 34,900  Descending Los Angeles Center
08:29AM 32.4134 -123.2755 77° East 466 536 35,000 60 Climbing FlightAware Transoceanic
08:29AM 32.3853 -123.2872 77° East 452 520 35,000  Level Los Angeles Center
08:30AM 32.4401 -123.1378 77° East 466 536 35,000  Level FlightAware Transoceanic
08:30AM 32.4125 -123.1442 77° East 451 519 35,000  Level Los Angeles Center
08:31AM 32.5315 -123.0393 42° Northeast  Level FlightAware Approximate
08:31AM 32.4419 -122.9997 76° East 451 519 35,000  Level Los Angeles Center
08:32AM 32.4983 -122.8714 62° Northeast 448 516 35,000  Level Los Angeles Center
08:33AM 32.5564 -122.7314 64° Northeast 458 527 35,000 -60 Level Los Angeles Center
08:34AM 32.6186 -122.6003 61° Northeast 460 529 34,900  Descending Los Angeles Center
08:35AM 32.6808 -122.4678 61° Northeast 459 528 35,000  Climbing Los Angeles Center
08:36AM 32.7425 -122.3364 61° Northeast 459 528 35,000  Level Los Angeles Center
08:37AM 32.8033 -122.2028 62° Northeast 459 528 35,000  Level Los Angeles Center
08:38AM 32.8711 -122.0789 57° Northeast 453 521 35,000  Level Los Angeles Center
08:39AM 32.9306 -121.9464 62° Northeast 453 521 35,000  Level Los Angeles Center
08:40AM 32.9919 -121.8125 61° Northeast 460 529 35,000  Level Los Angeles Center
08:41AM 33.0522 -121.6778 62° Northeast 461 531 35,000  Level Los Angeles Center
08:42AM 33.1131 -121.5461 61° Northeast 458 527 35,000 -60 Level Los Angeles Center
08:43AM 33.1719 -121.4100 63° Northeast 461 531 34,900  Descending Los Angeles Center
08:44AM 33.2339 -121.2772 61° Northeast 461 531 35,000  Climbing Los Angeles Center
08:45AM 33.2914 -121.1419 63° Northeast 458 527 35,000  Level Los Angeles Center
08:46AM 33.3522 -121.0072 62° Northeast 460 529 35,000  Level Los Angeles Center
08:47AM 33.4114 -120.8717 62° Northeast 461 531 35,000  Level Los Angeles Center
08:48AM 33.4697 -120.7383 62° Northeast 457 526 35,000  Level Los Angeles Center
08:49AM 33.5275 -120.6039 63° Northeast 456 525 35,000  Level Los Angeles Center
08:50AM 33.5869 -120.4692 62° Northeast 457 526 35,000  Level Los Angeles Center
08:51AM 33.6444 -120.3353 63° Northeast 456 525 35,000  Level Los Angeles Center
08:52AM 33.7019 -120.2011 63° Northeast 455 524 35,000  Level Los Angeles Center
08:53AM 33.7725 -120.0389 62° Northeast 459 528 35,000  Level Los Angeles Center
08:54AM 33.8436 -119.8764 62° Northeast 459 528 35,000 -60 Level Los Angeles Center
08:55AM 33.9031 -119.7406 62° Northeast 460 529 34,900  Descending Los Angeles Center
08:56AM 33.9603 -119.6050 63° Northeast 455 524 35,000  Climbing Los Angeles Center
08:57AM 34.0186 -119.4672 63° Northeast 459 528 35,000  Level Los Angeles Center
08:58AM 34.0644 -119.3586 63° Northeast 457 526 35,000  Level Los Angeles Center
08:59AM 34.1336 -119.1917 63° Northeast 463 533 35,000  Level Los Angeles Center
09:00AM 34.1897 -119.0531 64° Northeast 459 528 35,000  Level Los Angeles Center
09:01AM 34.2475 -118.9125 64° Northeast 466 536 35,000  Level Los Angeles Center
09:02AM 34.3056 -118.7725 63° Northeast 465 535 35,000  Level Los Angeles Center
09:03AM 34.3642 -118.6317 63° Northeast 466 536 35,000  Level Los Angeles Center
09:04AM 34.4222 -118.4911 63° Northeast 465 535 35,000  Level Los Angeles Center
09:05AM 34.4803 -118.3525 63° Northeast 463 533 35,000  Level Los Angeles Center
09:06AM 34.5381 -118.2122 63° Northeast 464 534 35,000  Level Los Angeles Center
09:07AM 34.5883 -118.0878 64° Northeast 460 529 35,000  Level Los Angeles Center
09:08AM 34.6442 -117.9486 64° Northeast 460 529 35,000  Level Los Angeles Center
09:09AM 34.7111 -117.7833 64° Northeast 459 528 35,000  Level Los Angeles Center
09:10AM 34.7653 -117.6433 65° Northeast 460 529 35,000 300 Level Los Angeles Center
09:11AM 34.8214 -117.5036 64° Northeast 464 534 35,700 720 Climbing Los Angeles Center
09:12AM 34.8658 -117.3914 64° Northeast 464 534 36,500 600 Climbing Los Angeles Center
09:13AM 34.9319 -117.2219 65° Northeast 468 539 37,000 240 Climbing Los Angeles Center
09:14AM 34.9867 -117.0861 64° Northeast 452 520 37,000  Level Los Angeles Center
09:15AM 35.0406 -116.9486 64° Northeast 454 522 37,000  Level Los Angeles Center
09:16AM 35.0958 -116.8083 64° Northeast 460 529 37,000  Level Los Angeles Center
09:17AM 35.1489 -116.6689 65° Northeast 457 526 37,000  Level Los Angeles Center
09:18AM 35.2147 -116.5006 64° Northeast 459 528 37,000  Level Los Angeles Center
09:19AM 35.2700 -116.3594 64° Northeast 461 531 37,000  Level Los Angeles Center
09:20AM 35.3244 -116.2167 65° Northeast 462 532 37,000  Level Los Angeles Center
09:21AM 35.3769 -116.0711 66° East 468 539 37,000  Level Los Angeles Center
09:23AM 35.4325 -115.9269 65° Northeast 469 540 37,000  Level Los Angeles Center
09:24AM 35.4997 -115.7581 64° Northeast 459 528 37,000  Level Los Angeles Center
09:25AM 35.5544 -115.6144 65° Northeast 461 531 37,000  Level Los Angeles Center
09:26AM 35.6094 -115.4683 65° Northeast 468 539 37,000  Level Los Angeles Center
09:27AM 35.6639 -115.3228 65° Northeast 471 542 37,000  Level Los Angeles Center
09:28AM 35.7292 -115.1483 65° Northeast 471 542 37,000  Level Los Angeles Center
09:29AM 35.7803 -115.0033 66° East 468 539 37,000  Level Los Angeles Center
09:30AM 35.8322 -114.8583 66° East 465 535 37,000  Level Los Angeles Center
09:31AM 35.8847 -114.7144 66° East 463 533 37,000  Level Los Angeles Center
09:32AM 35.9372 -114.5689 66° East 465 535 37,000  Level Los Angeles Center
09:33AM 36.0000 -114.3933 66° East 467 537 37,000  Level Los Angeles Center
09:34AM 36.0519 -114.2492 66° East 463 533 37,000  Level Los Angeles Center
09:35AM 36.1156 -114.0747 66° East 464 534 37,000  Level Los Angeles Center
09:36AM 36.1678 -113.9292 66° East 464 534 37,000  Level Los Angeles Center
09:37AM 36.2289 -113.7550 66° East 462 532 37,000  Level Los Angeles Center
09:38AM 36.2806 -113.6108 66° East 459 528 37,000  Level Los Angeles Center
09:40AM 36.3343 -113.4540 67° East  Level FlightAware Approximate
09:40AM 36.3408 -113.4372 67° East 458 527 37,000  Level Los Angeles Center
09:42AM 36.4394 -113.1567 66° East 456 525 37,000  Level Los Angeles Center
09:43AM 36.4892 -113.0114 67° East 458 527 37,000  Level Los Angeles Center
09:44AM 36.5392 -112.8678 67° East 456 525 37,000  Level Los Angeles Center
09:45AM 36.5986 -112.6950 67° East 456 525 37,000  Level Los Angeles Center
09:46AM 36.6492 -112.5508 66° East 456 525 37,000  Level Los Angeles Center
09:47AM 36.6986 -112.4061 67° East 457 526 37,000  Level Los Angeles Center
09:48AM 36.7492 -112.2592 67° East 461 531 37,000  Level Los Angeles Center
09:49AM 36.7978 -112.1142 67° East 459 528 37,000  Level Los Angeles Center
09:50AM 36.8464 -111.9667 68° East 461 531 37,000  Level Los Angeles Center
09:51AM 36.8953 -111.8222 67° East 457 526 37,000  Level Los Angeles Center
09:52AM 36.9625 -111.6192 67° East 454 522 37,000  Level Los Angeles Center
09:53AM 36.9914 -111.5322 67° East 455 524 37,000  Level Denver Center
09:54AM 37.0375 -111.3894 68° East 449 517 37,000  Level Denver Center
09:55AM 37.0831 -111.2450 68° East 449 517 37,000  Level Denver Center
09:56AM 37.1306 -111.1006 68° East 450 518 37,000  Level Denver Center
09:57AM 37.1769 -110.9569 68° East 448 516 37,000  Level Denver Center
09:58AM 37.2331 -110.7831 68° East 449 517 37,000  Level Denver Center
09:59AM 37.2800 -110.6383 68° East 448 516 37,000  Level Denver Center
10:00AM 37.3261 -110.4928 68° East 450 518 37,000  Level Denver Center
10:02AM 37.4236 -110.1842 68° East 450 518 37,000  Level Denver Center
10:03AM 37.4756 -110.0206 68° East 450 518 37,000  Level Denver Center
10:04AM 37.5183 -109.8794 69° East 450 518 37,000  Level Denver Center
10:05AM 37.5628 -109.7389 68° East 450 518 37,000  Level Denver Center
10:07AM 37.6184 -109.5460 70° East  Level FlightAware Approximate
10:08AM 37.7064 -109.2725 58° Northeast 446 513 37,000  Level Denver Center
10:09AM 37.7486 -109.1319 69° East 446 513 37,000  Level Denver Center
10:10AM 37.7908 -108.9906 69° East 448 516 37,000  Level Denver Center
10:11AM 37.8561 -108.8369 62° Northeast 441 507 37,000  Level Denver Center
10:12AM 37.9169 -108.7083 59° Northeast 443 510 37,000  Level Denver Center
10:13AM 37.9906 -108.5578 58° Northeast 448 516 37,000  Level Denver Center
10:14AM 37.9879 -108.5315 58° Northeast  Level FlightAware Approximate
10:14AM 38.0519 -108.4300 59° Northeast 445 512 37,000  Level Denver Center
10:15AM 38.1186 -108.2894 59° Northeast 448 516 37,000  Level Denver Center
10:17AM 38.1800 -108.1644 58° Northeast 441 507 37,000  Level Denver Center
10:18AM 38.2503 -108.0156 59° Northeast 441 507 37,000  Level Denver Center
10:19AM 38.3114 -107.8867 59° Northeast 443 510 37,000  Level Denver Center
10:20AM 38.3817 -107.7403 58° Northeast 436 502 37,000  Level Denver Center
10:21AM 38.4406 -107.6139 59° Northeast 436 502 37,000  Level Denver Center
10:22AM 38.5092 -107.4642 60° Northeast 437 503 37,000  Level Denver Center
10:23AM 38.5658 -107.3344 61° Northeast 438 504 37,000  Level Denver Center
10:24AM 38.6322 -107.1853 60° Northeast 435 501 37,000  Level Denver Center
10:25AM 38.6933 -107.0486 60° Northeast 435 501 37,000  Level Denver Center
10:27AM 38.8119 -106.7831 60° Northeast 433 498 37,000  Level Denver Center
10:28AM 38.8714 -106.6503 60° Northeast 432 497 37,000 -480 Level Denver Center
10:29AM 38.9386 -106.5056 59° Northeast 430 495 36,100 -1,800 Descending Denver Center
10:30AM 38.9972 -106.3800 59° Northeast 428 493 33,400 -2,940 Descending Denver Center
10:31AM 39.0656 -106.2289 60° Northeast 436 502 30,100 -2,280 Descending Denver Center
10:32AM 39.1261 -106.0956 60° Northeast 428 493 28,800 -1,740 Descending Denver Center
10:33AM 39.1794 -105.9744 60° Northeast 396 456 26,600 -2,100 Descending Denver Center
10:34AM 39.2319 -105.8536 61° Northeast 388 447 24,500 -1,980 Descending Denver Center
10:36AM 39.3333 -105.6167 61° Northeast 355 409 20,600 -1,800 Descending Denver TRACON
10:37AM 39.3833 -105.5000 61° Northeast 343 395 19,100 -1,380 Descending Denver TRACON
10:38AM 39.4000 -105.3833 79° East 331 381 17,900 -1,140 Descending Denver TRACON
10:39AM 39.4053 -105.2536 87° East 323 372 16,700 -1,260 Descending Denver Center
10:40AM 39.4097 -105.1419 87° East 315 362 15,200 -1,200 Descending Denver Center
10:41AM 39.4150 -105.0286 87° East 298 343 14,300 -1,080 Descending Denver Center
10:42AM 39.4400 -104.9403 70° East 273 314 13,000 -1,260 Descending Denver Center
10:43AM 39.4886 -104.8594 52° Northeast 266 306 11,800 -1,020 Descending Denver Center
10:44AM 39.5475 -104.8117 32° Northeast 250 288 10,900 -1,020 Descending Denver Center
10:45AM 39.6133 -104.7794 21° North 237 273 9,700 -1,140 Descending Denver Center
10:46AM 39.6739 -104.7461 23° Northeast 237 273 8,600 -1,080 Descending Denver Center